Time;durP1;ratioP1;P1;durP2;ratioP2;P2;SDS_P1;SDS_P2;PMS_P1;PMS_P2;Temp;Humidity;BMP_temperature;BMP_pressure;BME280_temperature;BME280_humidity;BME280_pressure;Samples;Min_cycle;Max_cycle;Signal;HPM_P1;HPM_P2
2021/04/02 00:00:46;;;;;;;27.35;13.48;;;6.10;86.70;;;;;;5026831;28;20121;-79
2021/04/02 00:03:18;;;;;;;35.08;14.55;;;6.10;86.70;;;;;;5005805;28;20074;-79
2021/04/02 00:05:45;;;;;;;25.25;13.13;;;6.10;86.30;;;;;;5023669;28;20049;-79
2021/04/02 00:08:11;;;;;;;29.30;13.27;;;6.10;86.10;;;;;;5027434;28;20083;-79
2021/04/02 00:10:53;;;;;;;27.75;14.25;;;6.10;86.10;;;;;;5028318;28;20140;-78
2021/04/02 00:13:20;;;;;;;27.63;13.60;;;6.00;86.00;;;;;;5029126;28;20022;-79
2021/04/02 00:15:47;;;;;;;28.27;14.57;;;6.00;86.00;;;;;;5018066;28;20044;-79
2021/04/02 00:18:13;;;;;;;29.40;14.48;;;6.00;86.30;;;;;;5026114;28;20144;-79
2021/04/02 00:20:39;;;;;;;24.73;14.13;;;5.90;86.50;;;;;;5028579;28;20052;-79
2021/04/02 00:23:06;;;;;;;33.75;15.77;;;5.90;86.60;;;;;;5031377;28;20061;-79
2021/04/02 00:25:32;;;;;;;30.20;14.68;;;6.00;86.50;;;;;;5027599;28;20030;-79
2021/04/02 00:27:57;;;;;;;27.55;14.30;;;5.90;86.20;;;;;;5025061;28;20067;-79
2021/04/02 00:30:30;;;;;;;27.35;14.95;;;5.80;86.40;;;;;;5021205;28;20048;-79
2021/04/02 00:32:55;;;;;;;27.85;15.05;;;5.90;86.30;;;;;;5025700;28;20540;-79
2021/04/02 00:35:21;;;;;;;27.25;14.93;;;5.80;86.10;;;;;;5028021;28;20123;-78
2021/04/02 00:37:47;;;;;;;26.83;14.73;;;5.80;86.10;;;;;;5022480;28;20128;-79
2021/04/02 00:40:23;;;;;;;28.27;15.77;;;5.70;86.10;;;;;;5026254;28;20053;-79
2021/04/02 00:42:49;;;;;;;31.55;15.40;;;5.70;86.20;;;;;;5027268;28;20452;-79
2021/04/02 00:45:20;;;;;;;28.60;15.48;;;5.70;86.40;;;;;;5025779;28;20029;-79
2021/04/02 00:47:50;;;;;;;36.92;17.45;;;5.60;86.60;;;;;;5033098;28;20037;-79
2021/04/02 00:50:37;;;;;;;32.20;18.35;;;5.60;86.70;;;;;;5034156;28;20139;-79
2021/04/02 00:53:03;;;;;;;28.50;17.98;;;5.60;86.80;;;;;;5026334;28;20048;-78
2021/04/02 00:55:29;;;;;;;35.75;20.05;;;5.60;86.80;;;;;;5028289;28;20037;-79
2021/04/02 00:57:55;;;;;;;30.20;18.73;;;5.50;87.00;;;;;;5026900;28;20076;-79
2021/04/02 01:00:21;;;;;;;32.47;20.10;;;5.50;87.10;;;;;;5021920;28;20049;-79
2021/04/02 01:02:46;;;;;;;35.78;20.48;;;5.40;87.00;;;;;;5019063;28;20124;-79
2021/04/02 01:05:20;;;;;;;37.00;21.45;;;5.40;87.00;;;;;;5030141;28;20121;-79
2021/04/02 01:08:01;;;;;;;34.08;20.20;;;5.40;87.10;;;;;;5017200;28;20033;-79
2021/04/02 01:10:29;;;;;;;34.80;21.48;;;5.40;86.90;;;;;;5026423;28;20448;-79
2021/04/02 01:13:12;;;;;;;35.97;21.15;;;5.20;87.20;;;;;;5025182;28;20476;-78
2021/04/02 01:15:43;;;;;;;34.53;20.73;;;5.20;87.10;;;;;;5018556;28;20037;-79
2021/04/02 01:18:28;;;;;;;34.85;22.42;;;5.20;87.00;;;;;;5030166;28;20040;-79
2021/04/02 01:20:57;;;;;;;36.72;22.77;;;5.20;86.90;;;;;;5040338;28;20148;-79
2021/04/02 01:23:29;;;;;;;34.55;21.48;;;5.10;87.00;;;;;;5027100;28;20095;-79
2021/04/02 01:26:12;;;;;;;33.97;21.20;;;5.10;86.90;;;;;;5026121;28;20044;-78
2021/04/02 01:28:57;;;;;;;35.75;22.52;;;5.10;86.80;;;;;;5029750;28;20017;-78
2021/04/02 01:31:24;;;;;;;32.65;21.92;;;5.10;86.80;;;;;;5026038;28;20041;-78
2021/04/02 01:33:52;;;;;;;32.67;22.15;;;5.10;86.80;;;;;;5029696;28;20038;-80
2021/04/02 01:36:19;;;;;;;35.92;23.27;;;5.00;86.90;;;;;;5038714;28;20469;-79
2021/04/02 01:38:46;;;;;;;33.40;22.00;;;5.00;86.90;;;;;;5039823;28;20048;-80
2021/04/02 01:41:13;;;;;;;31.00;21.70;;;5.00;86.90;;;;;;5029312;28;20030;-79
2021/04/02 01:43:48;;;;;;;38.85;22.85;;;4.90;87.00;;;;;;5025887;28;20032;-79
2021/04/02 01:46:15;;;;;;;34.70;22.40;;;4.90;87.10;;;;;;5023670;28;20465;-79
2021/04/02 01:48:45;;;;;;;31.92;23.52;;;4.80;87.10;;;;;;5027932;28;20114;-80
2021/04/02 01:51:16;;;;;;;34.67;22.67;;;4.80;87.30;;;;;;5024471;28;20045;-79
2021/04/02 01:53:46;;;;;;;31.67;22.92;;;4.80;87.20;;;;;;5022006;28;20025;-79
2021/04/02 01:56:13;;;;;;;38.95;24.35;;;4.70;87.30;;;;;;5024044;28;20061;-78
2021/04/02 01:58:42;;;;;;;33.33;22.77;;;4.70;87.30;;;;;;5023896;28;20418;-78
2021/04/02 02:01:08;;;;;;;34.90;24.23;;;4.70;87.30;;;;;;5025148;28;20029;-79
2021/04/02 02:03:35;;;;;;;36.95;23.70;;;4.70;87.40;;;;;;5030570;28;20029;-79
2021/04/02 02:06:03;;;;;;;34.83;23.40;;;4.70;87.40;;;;;;5025887;28;20136;-78
2021/04/02 02:08:30;;;;;;;30.35;21.60;;;4.60;87.50;;;;;;5017717;28;20030;-79
2021/04/02 02:11:07;;;;;;;33.75;22.55;;;4.60;87.60;;;;;;5022295;28;20182;-79
2021/04/02 02:13:35;;;;;;;31.88;21.77;;;4.60;87.50;;;;;;5026124;28;20029;-80
2021/04/02 02:16:04;;;;;;;32.83;21.65;;;4.60;87.80;;;;;;5025808;28;20034;-78
2021/04/02 02:18:31;;;;;;;28.55;21.17;;;4.50;87.80;;;;;;5031393;28;20040;-80
2021/04/02 02:20:57;;;;;;;32.20;21.85;;;4.50;87.70;;;;;;5028332;28;20400;-79
2021/04/02 02:23:23;;;;;;;37.80;21.73;;;4.50;87.70;;;;;;5029685;28;20032;-79
2021/04/02 02:25:49;;;;;;;32.42;20.65;;;4.40;87.90;;;;;;5032645;28;20131;-79
2021/04/02 02:28:16;;;;;;;31.98;20.05;;;4.40;87.90;;;;;;5027896;28;20069;-80
2021/04/02 02:30:43;;;;;;;30.55;20.73;;;4.40;87.90;;;;;;5028596;28;20069;-79
2021/04/02 02:33:09;;;;;;;31.73;19.80;;;4.40;87.80;;;;;;5035204;28;20029;-78
2021/04/02 02:35:35;;;;;;;29.30;20.13;;;4.40;87.80;;;;;;5028607;28;20042;-78
2021/04/02 02:38:02;;;;;;;27.55;19.02;;;4.40;87.80;;;;;;5029213;28;20396;-78
2021/04/02 02:40:30;;;;;;;31.95;21.20;;;4.40;87.80;;;;;;5035981;28;20026;-79
2021/04/02 02:42:57;;;;;;;35.22;21.08;;;4.40;87.90;;;;;;5034716;28;20036;-79
2021/04/02 02:45:24;;;;;;;32.30;20.17;;;4.30;88.00;;;;;;5032426;28;20083;-79
2021/04/02 02:47:50;;;;;;;33.88;20.45;;;4.30;88.00;;;;;;5038659;28;20029;-78
2021/04/02 02:50:20;;;;;;;33.05;20.73;;;4.30;88.00;;;;;;5025556;28;20046;-78
2021/04/02 02:52:48;;;;;;;31.80;19.63;;;4.30;87.90;;;;;;5036366;28;20095;-78
2021/04/02 02:55:16;;;;;;;33.88;19.02;;;4.30;87.90;;;;;;5032829;28;20091;-79
2021/04/02 02:57:44;;;;;;;33.80;19.45;;;4.20;88.00;;;;;;5029213;28;20036;-79
2021/04/02 03:00:14;;;;;;;35.15;20.27;;;4.20;87.90;;;;;;5032121;28;20110;-78
2021/04/02 03:02:43;;;;;;;32.22;19.45;;;4.20;88.00;;;;;;5034652;28;20037;-79
2021/04/02 03:05:10;;;;;;;26.55;17.90;;;4.20;87.90;;;;;;5031462;28;20079;-78
2021/04/02 03:07:36;;;;;;;35.22;18.65;;;4.20;88.00;;;;;;5029925;28;20524;-79
2021/04/02 03:10:05;;;;;;;28.77;20.33;;;4.20;88.00;;;;;;5033784;28;20049;-78
2021/04/02 03:12:34;;;;;;;27.95;18.40;;;4.10;88.00;;;;;;5034588;28;20071;-79
2021/04/02 03:15:01;;;;;;;26.20;17.50;;;4.10;88.00;;;;;;5034312;28;20042;-79
2021/04/02 03:17:28;;;;;;;27.55;17.30;;;4.10;88.00;;;;;;5028585;28;20389;-78
2021/04/02 03:19:55;;;;;;;29.90;17.55;;;4.10;88.00;;;;;;5033540;28;20531;-79
2021/04/02 03:22:22;;;;;;;30.70;17.45;;;4.10;87.90;;;;;;5044173;28;20480;-79
2021/04/02 03:24:50;;;;;;;29.55;17.48;;;4.10;87.90;;;;;;5030666;28;20033;-78
2021/04/02 03:27:16;;;;;;;29.83;17.30;;;4.10;87.90;;;;;;5035085;28;20040;-79
2021/04/02 03:29:42;;;;;;;27.65;16.90;;;4.10;87.80;;;;;;5031054;28;20057;-79
2021/04/02 03:32:11;;;;;;;28.08;18.05;;;4.10;87.90;;;;;;5031167;28;20475;-79
2021/04/02 03:34:38;;;;;;;27.67;17.70;;;4.00;88.00;;;;;;5029548;28;20385;-79
2021/04/02 03:37:11;;;;;;;27.85;18.55;;;4.00;88.00;;;;;;5029716;28;20463;-78
2021/04/02 03:39:41;;;;;;;27.50;17.23;;;3.90;88.30;;;;;;5038222;28;20044;-79
2021/04/02 03:42:09;;;;;;;27.67;17.70;;;3.90;88.30;;;;;;5032382;28;20030;-78
2021/04/02 03:44:35;;;;;;;31.73;17.27;;;3.90;88.40;;;;;;5030026;28;20029;-78
2021/04/02 03:47:03;;;;;;;28.80;17.38;;;3.90;88.30;;;;;;5027560;28;20118;-76
2021/04/02 03:49:34;;;;;;;23.95;15.73;;;3.90;88.40;;;;;;5027885;28;20041;-79
2021/04/02 03:52:07;;;;;;;26.20;15.95;;;3.90;88.40;;;;;;5028065;28;20052;-79
2021/04/02 03:54:36;;;;;;;26.27;16.38;;;3.90;88.50;;;;;;5010502;28;20507;-79
2021/04/02 03:57:02;;;;;;;30.55;15.52;;;3.80;88.30;;;;;;5003159;28;20053;-78
2021/04/02 03:59:35;;;;;;;23.67;15.43;;;3.80;88.40;;;;;;5009339;28;20029;-79
2021/04/02 04:02:01;;;;;;;23.08;14.73;;;3.80;88.40;;;;;;5015087;28;20042;-79
2021/04/02 04:04:29;;;;;;;28.65;15.55;;;3.80;88.40;;;;;;5032494;28;20033;-79
2021/04/02 04:06:58;;;;;;;21.48;14.27;;;3.80;88.40;;;;;;5031301;28;20050;-79
2021/04/02 04:09:26;;;;;;;25.48;14.52;;;3.80;88.50;;;;;;5022931;28;20029;-78
2021/04/02 04:11:53;;;;;;;22.40;12.90;;;3.70;88.50;;;;;;5045106;28;20037;-78
2021/04/02 04:14:21;;;;;;;26.85;13.95;;;3.70;88.50;;;;;;5042609;28;20357;-79
2021/04/02 04:16:47;;;;;;;23.55;13.48;;;3.70;88.70;;;;;;5030348;28;20033;-79
2021/04/02 04:19:16;;;;;;;28.75;13.23;;;3.70;88.70;;;;;;5021059;28;20061;-79
2021/04/02 04:21:45;;;;;;;19.83;12.98;;;3.70;88.60;;;;;;5031317;28;20083;-78
2021/04/02 04:24:17;;;;;;;23.83;12.70;;;3.70;88.70;;;;;;5032937;28;20037;-79
2021/04/02 04:26:46;;;;;;;21.40;12.82;;;3.70;88.90;;;;;;5026770;28;20092;-79
2021/04/02 04:29:21;;;;;;;24.48;13.98;;;3.70;88.80;;;;;;5025941;28;20122;-78
2021/04/02 04:31:48;;;;;;;26.13;13.65;;;3.60;89.00;;;;;;5037829;28;20036;-78
2021/04/02 04:34:16;;;;;;;23.23;13.63;;;3.60;89.20;;;;;;5029004;28;20593;-79
2021/04/02 04:36:44;;;;;;;25.88;14.77;;;3.60;89.20;;;;;;5028041;28;20033;-79
2021/04/02 04:39:10;;;;;;;23.13;14.50;;;3.60;89.10;;;;;;5033321;28;20472;-79
2021/04/02 04:41:36;;;;;;;28.77;16.45;;;3.60;89.20;;;;;;5035747;28;20039;-79
2021/04/02 04:44:05;;;;;;;27.90;15.88;;;3.60;89.30;;;;;;5034693;28;20035;-79
2021/04/02 04:46:31;;;;;;;27.50;16.67;;;3.60;89.30;;;;;;5029161;28;20041;-80
2021/04/02 04:48:57;;;;;;;28.42;15.93;;;3.60;89.40;;;;;;5035047;28;20044;-79
2021/04/02 04:51:28;;;;;;;28.35;17.20;;;3.60;89.40;;;;;;5036324;28;20038;-79
2021/04/02 04:53:56;;;;;;;26.75;17.10;;;3.60;89.30;;;;;;5053778;28;20051;-79
2021/04/02 04:56:24;;;;;;;26.73;16.85;;;3.60;89.40;;;;;;5044892;28;20037;-79
2021/04/02 04:58:52;;;;;;;25.40;16.83;;;3.60;89.40;;;;;;5047038;28;20044;-79
2021/04/02 05:01:20;;;;;;;27.52;18.08;;;3.60;89.40;;;;;;5042632;28;20049;-79
2021/04/02 05:03:46;;;;;;;26.85;17.58;;;3.60;89.40;;;;;;5039214;28;20060;-79
2021/04/02 05:06:14;;;;;;;32.55;18.77;;;3.60;89.40;;;;;;5028756;28;20136;-80
2021/04/02 05:08:42;;;;;;;26.60;17.83;;;3.50;89.50;;;;;;5028369;28;20034;-78
2021/04/02 05:11:13;;;;;;;30.70;19.15;;;3.60;89.60;;;;;;5024701;28;20119;-79
2021/04/02 05:13:40;;;;;;;29.65;18.98;;;3.60;89.70;;;;;;5025694;28;20037;-79
2021/04/02 05:16:07;;;;;;;28.27;18.55;;;3.60;89.60;;;;;;5037712;28;20464;-80
2021/04/02 05:18:33;;;;;;;28.08;18.60;;;3.60;89.60;;;;;;5034862;28;20033;-79
2021/04/02 05:20:59;;;;;;;26.80;19.55;;;3.60;89.60;;;;;;5036836;28;20028;-79
2021/04/02 05:23:25;;;;;;;28.90;19.58;;;3.60;89.60;;;;;;5021810;28;20030;-79
2021/04/02 05:25:51;;;;;;;29.70;19.45;;;3.60;89.70;;;;;;5033858;28;20402;-79
2021/04/02 05:28:16;;;;;;;29.20;19.48;;;3.60;89.80;;;;;;5028443;28;20030;-79
2021/04/02 05:30:42;;;;;;;32.60;19.88;;;3.50;89.80;;;;;;5027703;28;20469;-79
2021/04/02 05:33:08;;;;;;;27.48;19.25;;;3.60;89.70;;;;;;5041645;28;20030;-79
2021/04/02 05:35:34;;;;;;;27.55;18.05;;;3.60;89.70;;;;;;5033630;28;20049;-80
2021/04/02 05:38:00;;;;;;;27.38;18.48;;;3.60;89.70;;;;;;5027287;28;20033;-80
2021/04/02 05:40:26;;;;;;;28.70;18.55;;;3.60;89.60;;;;;;5031460;28;20029;-79
2021/04/02 05:42:54;;;;;;;26.13;18.45;;;3.60;89.50;;;;;;5035369;28;20038;-78
2021/04/02 05:45:21;;;;;;;25.35;17.88;;;3.70;89.60;;;;;;5030975;28;20030;-78
2021/04/02 05:47:52;;;;;;;22.60;17.27;;;3.70;89.50;;;;;;5032699;28;20108;-78
2021/04/02 05:50:20;;;;;;;25.00;18.67;;;3.80;89.30;;;;;;5026253;28;20392;-79
2021/04/02 05:52:48;;;;;;;28.98;17.83;;;3.80;89.20;;;;;;5024563;28;20044;-79
2021/04/02 05:55:17;;;;;;;28.17;19.02;;;3.80;89.10;;;;;;5012844;28;20037;-79
2021/04/02 05:57:45;;;;;;;26.17;18.20;;;3.80;89.10;;;;;;5021319;28;20021;-79
2021/04/02 06:00:13;;;;;;;26.60;18.88;;;3.80;89.10;;;;;;5016095;28;20121;-79
2021/04/02 06:02:40;;;;;;;27.70;18.20;;;3.90;89.00;;;;;;5024355;28;20499;-79
2021/04/02 06:05:09;;;;;;;23.65;16.45;;;3.90;89.00;;;;;;5022114;28;20391;-78
2021/04/02 06:07:39;;;;;;;27.17;17.30;;;3.90;89.00;;;;;;5026111;28;20120;-79
2021/04/02 06:10:06;;;;;;;26.08;15.88;;;4.10;88.90;;;;;;5019043;28;20038;-79
2021/04/02 06:12:35;;;;;;;30.35;19.70;;;4.10;88.60;;;;;;5025000;28;20028;-79
2021/04/02 06:15:04;;;;;;;27.52;17.40;;;4.10;88.60;;;;;;5024280;28;20041;-79
2021/04/02 06:18:07;;;;;;;26.48;16.45;;;4.10;88.50;;;;;;5023542;28;20068;-79
2021/04/02 06:20:45;;;;;;;20.65;14.38;;;4.20;88.40;;;;;;5024906;28;20029;-79
2021/04/02 06:23:17;;;;;;;26.17;15.70;;;4.20;88.40;;;;;;5034382;28;20029;-79
2021/04/02 06:25:49;;;;;;;22.08;13.73;;;4.30;88.30;;;;;;5030912;28;20056;-79
2021/04/02 06:28:40;;;;;;;17.33;12.15;;;4.50;88.20;;;;;;5027221;28;20160;-79
2021/04/02 06:31:12;;;;;;;19.05;13.18;;;4.50;88.10;;;;;;5028333;28;20545;-78
2021/04/02 06:33:52;;;;;;;23.38;13.40;;;4.60;87.90;;;;;;5028342;28;20113;-79
2021/04/02 06:36:19;;;;;;;18.50;13.65;;;4.60;88.00;;;;;;5018266;28;20520;-79
2021/04/02 06:38:54;;;;;;;19.85;13.43;;;4.70;87.90;;;;;;5027942;28;20022;-80
2021/04/02 06:41:20;;;;;;;18.98;13.13;;;4.80;87.80;;;;;;5027310;28;20118;-78
2021/04/02 06:43:48;;;;;;;21.88;13.02;;;4.80;87.70;;;;;;5031693;28;20033;-77
2021/04/02 06:46:35;;;;;;;23.55;12.38;;;4.90;87.60;;;;;;5030093;28;20076;-79
2021/04/02 06:49:21;;;;;;;22.55;13.20;;;5.00;87.20;;;;;;5034482;28;20121;-79
2021/04/02 06:51:52;;;;;;;23.67;12.18;;;5.10;87.20;;;;;;5028121;28;20049;-76
2021/04/02 06:54:23;;;;;;;18.85;11.88;;;5.20;86.90;;;;;;5022033;28;20037;-73
2021/04/02 06:57:02;;;;;;;19.88;12.02;;;5.30;86.70;;;;;;5024441;28;20044;-74
2021/04/02 06:59:31;;;;;;;20.73;11.65;;;5.40;86.30;;;;;;5024951;28;20107;-72
2021/04/02 07:01:58;;;;;;;16.63;11.27;;;5.50;86.10;;;;;;5026959;28;20507;-72
2021/04/02 07:04:25;;;;;;;20.13;11.35;;;5.60;85.40;;;;;;5021528;28;20366;-73
2021/04/02 07:06:54;;;;;;;23.20;12.00;;;5.70;85.70;;;;;;5026475;28;20729;-75
2021/04/02 07:09:22;;;;;;;20.33;11.00;;;5.80;85.40;;;;;;5026368;28;21419;-73
2021/04/02 07:11:52;;;;;;;17.73;10.10;;;5.90;85.10;;;;;;5028519;28;20037;-74
2021/04/02 07:14:19;;;;;;;20.50;9.90;;;6.00;84.90;;;;;;5025333;28;20062;-73
2021/04/02 07:16:45;;;;;;;16.48;10.02;;;6.10;84.20;;;;;;5037884;28;20037;-74
2021/04/02 07:19:12;;;;;;;18.85;9.07;;;6.30;83.80;;;;;;5028868;28;20176;-73
2021/04/02 07:21:38;;;;;;;19.85;9.95;;;6.30;83.50;;;;;;5023763;28;20053;-78
2021/04/02 07:24:05;;;;;;;19.52;9.75;;;6.50;83.10;;;;;;5024644;28;20088;-79
2021/04/02 07:26:31;;;;;;;18.52;9.77;;;6.50;82.80;;;;;;5023356;28;20422;-73
2021/04/02 07:28:56;;;;;;;16.38;8.98;;;6.60;82.60;;;;;;5020375;28;20048;-73
2021/04/02 07:31:24;;;;;;;18.05;9.23;;;6.70;81.60;;;;;;5015815;28;20061;-73
2021/04/02 07:33:52;;;;;;;20.08;8.00;;;6.80;81.80;;;;;;5020541;28;20068;-73
2021/04/02 07:36:19;;;;;;;17.52;8.75;;;6.80;80.90;;;;;;5020462;28;20958;-73
2021/04/02 07:38:50;;;;;;;20.77;9.15;;;6.90;81.10;;;;;;5026234;28;20083;-74
2021/04/02 07:41:17;;;;;;;15.93;8.45;;;6.90;81.20;;;;;;5020322;28;20094;-75
2021/04/02 07:43:52;;;;;;;19.48;8.65;;;7.10;80.20;;;;;;5022777;28;20040;-77
2021/04/02 07:46:29;;;;;;;16.33;8.10;;;7.40;79.90;;;;;;5017535;28;20076;-74
2021/04/02 07:49:10;;;;;;;17.15;8.50;;;7.50;78.80;;;;;;5028483;28;20029;-73
2021/04/02 07:51:48;;;;;;;15.35;8.13;;;7.50;77.50;;;;;;5039517;28;20117;-73
2021/04/02 07:54:21;;;;;;;13.75;8.07;;;7.70;76.40;;;;;;5019376;28;20058;-72
2021/04/02 07:56:50;;;;;;;23.50;9.25;;;8.10;76.10;;;;;;5028862;28;20116;-70
2021/04/02 07:59:15;;;;;;;12.73;7.47;;;8.30;75.90;;;;;;5028582;28;20067;-72
2021/04/02 08:01:57;;;;;;;17.15;7.35;;;8.50;75.10;;;;;;5030550;28;20037;-72
2021/04/02 08:04:36;;;;;;;17.80;7.18;;;8.50;74.50;;;;;;5029649;28;20338;-74
2021/04/02 08:07:02;;;;;;;14.13;7.07;;;8.60;74.70;;;;;;5033355;28;20185;-72
2021/04/02 08:09:28;;;;;;;13.98;6.22;;;8.60;72.90;;;;;;5026707;28;20057;-73
2021/04/02 08:11:57;;;;;;;16.60;7.07;;;8.40;73.90;;;;;;5029373;28;20084;-72
2021/04/02 08:14:47;;;;;;;14.25;6.07;;;8.40;72.90;;;;;;5028375;28;20044;-72
2021/04/02 08:17:16;;;;;;;16.70;6.97;;;8.40;72.70;;;;;;5015048;28;20037;-74
2021/04/02 08:19:42;;;;;;;14.15;7.28;;;8.30;73.40;;;;;;5021850;28;20537;-71
2021/04/02 08:22:15;;;;;;;15.75;6.28;;;8.60;72.60;;;;;;5027554;28;20025;-72
2021/04/02 08:24:46;;;;;;;13.57;7.38;;;8.80;71.70;;;;;;5037135;28;20029;-74
2021/04/02 08:27:13;;;;;;;14.60;6.85;;;9.00;71.50;;;;;;5024776;28;20132;-74
2021/04/02 08:29:40;;;;;;;15.27;6.07;;;9.20;71.20;;;;;;5028354;28;20033;-73
2021/04/02 08:32:08;;;;;;;12.52;5.22;;;9.60;69.30;;;;;;5030903;28;20193;-73
2021/04/02 08:34:36;;;;;;;16.10;6.70;;;9.40;67.10;;;;;;5033430;28;20480;-74
2021/04/02 08:37:05;;;;;;;9.80;4.80;;;9.30;68.10;;;;;;5026733;28;20038;-76
2021/04/02 08:39:31;;;;;;;17.17;4.68;;;9.60;66.80;;;;;;5024305;28;20034;-75
2021/04/02 08:42:08;;;;;;;10.35;5.00;;;9.90;66.30;;;;;;5024096;28;20044;-73
2021/04/02 08:44:45;;;;;;;12.43;4.70;;;9.90;65.50;;;;;;5017778;28;20030;-73
2021/04/02 08:47:12;;;;;;;12.45;4.38;;;9.70;65.20;;;;;;5019000;28;20065;-73
2021/04/02 08:49:43;;;;;;;14.27;5.30;;;9.60;64.80;;;;;;5028847;28;20061;-73
2021/04/02 08:52:10;;;;;;;14.77;4.55;;;9.60;65.70;;;;;;5025023;28;20083;-73
2021/04/02 08:54:36;;;;;;;13.93;4.65;;;9.50;65.00;;;;;;5029420;28;20580;-73
2021/04/02 08:57:03;;;;;;;12.00;4.43;;;9.30;65.80;;;;;;5017551;28;20065;-73
2021/04/02 08:59:33;;;;;;;11.00;4.65;;;9.10;65.80;;;;;;5024307;28;20456;-73
2021/04/02 09:02:00;;;;;;;10.90;4.95;;;8.70;66.70;;;;;;5026006;28;20033;-72
2021/04/02 09:04:27;;;;;;;12.90;4.65;;;8.60;67.70;;;;;;5018855;28;20103;-72
2021/04/02 09:06:53;;;;;;;13.05;4.90;;;8.60;67.30;;;;;;5026003;28;20067;-73
2021/04/02 09:09:21;;;;;;;12.18;5.43;;;8.40;67.30;;;;;;5026339;28;20492;-72
2021/04/02 09:11:54;;;;;;;18.05;4.47;;;8.40;67.50;;;;;;5025880;28;20037;-73
2021/04/02 09:14:20;;;;;;;12.07;4.88;;;8.40;66.70;;;;;;5023349;28;20531;-73
2021/04/02 09:16:48;;;;;;;17.55;5.00;;;8.40;66.10;;;;;;5033864;28;20072;-71
2021/04/02 09:19:16;;;;;;;10.65;4.28;;;8.40;66.40;;;;;;5032117;28;20033;-73
2021/04/02 09:21:42;;;;;;;12.82;4.47;;;8.30;66.20;;;;;;5029029;28;20030;-73
2021/04/02 09:24:09;;;;;;;11.95;4.20;;;8.70;66.00;;;;;;5024035;28;20031;-72
2021/04/02 09:26:42;;;;;;;12.40;3.88;;;8.80;63.30;;;;;;5035415;28;20108;-71
2021/04/02 09:29:12;;;;;;;11.52;5.05;;;9.00;62.30;;;;;;5019646;28;20109;-71
2021/04/02 09:31:43;;;;;;;11.70;4.72;;;9.00;61.40;;;;;;5019169;28;20153;-71
2021/04/02 09:34:16;;;;;;;8.50;3.15;;;9.10;60.90;;;;;;5032026;28;20490;-71
2021/04/02 09:36:43;;;;;;;10.20;4.38;;;9.50;57.40;;;;;;5031787;28;20025;-72
2021/04/02 09:39:13;;;;;;;12.95;5.35;;;9.40;59.50;;;;;;5019541;28;20071;-75
2021/04/02 09:41:48;;;;;;;10.57;4.82;;;9.50;59.60;;;;;;5030170;28;20476;-72
2021/04/02 09:44:15;;;;;;;11.77;5.28;;;9.60;60.10;;;;;;5026050;28;20029;-72
2021/04/02 09:46:43;;;;;;;13.45;5.88;;;9.70;60.30;;;;;;5025959;28;20444;-71
2021/04/02 09:49:17;;;;;;;13.02;7.03;;;10.10;59.10;;;;;;5028184;28;20037;-72
2021/04/02 09:51:49;;;;;;;15.52;6.72;;;9.90;59.60;;;;;;5014783;28;20092;-75
2021/04/02 09:54:17;;;;;;;9.15;5.53;;;10.10;59.80;;;;;;5008987;28;20038;-73
2021/04/02 09:56:44;;;;;;;10.57;5.78;;;10.50;58.50;;;;;;5026947;28;20087;-73
2021/04/02 09:59:10;;;;;;;8.27;5.65;;;10.50;57.50;;;;;;5023647;28;20021;-71
2021/04/02 10:01:37;;;;;;;13.43;6.15;;;10.30;58.70;;;;;;5023854;28;20037;-70
2021/04/02 10:04:04;;;;;;;9.73;6.57;;;10.60;57.60;;;;;;5025718;28;20108;-73
2021/04/02 10:06:30;;;;;;;13.15;6.70;;;10.50;58.00;;;;;;5018737;28;20396;-71
2021/04/02 10:08:56;;;;;;;14.73;6.93;;;10.00;58.70;;;;;;5036421;28;20060;-72
2021/04/02 10:11:23;;;;;;;10.85;6.97;;;10.10;59.90;;;;;;5024605;28;20041;-74
2021/04/02 10:13:49;;;;;;;11.93;6.32;;;10.60;59.70;;;;;;5023394;28;20037;-73
2021/04/02 10:16:16;;;;;;;14.35;8.48;;;10.40;55.50;;;;;;5018956;28;20396;-71
2021/04/02 10:18:41;;;;;;;12.20;7.55;;;10.50;57.40;;;;;;5024377;28;20433;-72
2021/04/02 10:21:07;;;;;;;14.73;9.50;;;10.70;56.60;;;;;;5016911;28;20036;-71
2021/04/02 10:23:34;;;;;;;15.07;8.88;;;11.10;56.60;;;;;;5007039;28;20304;-72
2021/04/02 10:25:59;;;;;;;14.32;8.15;;;11.10;56.60;;;;;;5014232;28;20479;-74
2021/04/02 10:28:25;;;;;;;12.68;8.00;;;10.70;57.10;;;;;;5011362;28;20037;-71
2021/04/02 10:30:52;;;;;;;11.68;7.57;;;10.50;58.00;;;;;;5011480;28;20177;-75
2021/04/02 10:33:18;;;;;;;11.85;7.55;;;10.40;58.10;;;;;;5016403;28;20038;-70
2021/04/02 10:35:45;;;;;;;14.57;7.88;;;10.70;59.30;;;;;;5024432;28;20542;-70
2021/04/02 10:38:11;;;;;;;12.13;7.63;;;10.60;57.70;;;;;;5020560;28;20030;-74
2021/04/02 10:40:37;;;;;;;11.23;6.55;;;10.50;57.00;;;;;;5023176;28;20026;-71
2021/04/02 10:43:03;;;;;;;15.80;6.63;;;10.20;55.50;;;;;;5009232;28;20041;-71
2021/04/02 10:45:29;;;;;;;13.35;7.28;;;10.30;57.40;;;;;;5013050;28;20531;-72
2021/04/02 10:47:55;;;;;;;15.93;7.65;;;11.00;57.50;;;;;;5016966;28;20030;-71
2021/04/02 10:50:23;;;;;;;15.95;7.18;;;11.30;57.50;;;;;;5022430;28;20128;-74
2021/04/02 10:52:49;;;;;;;15.30;8.15;;;11.00;58.20;;;;;;5016043;28;20072;-72
2021/04/02 10:55:15;;;;;;;16.35;7.72;;;11.10;58.30;;;;;;5013333;28;20113;-73
2021/04/02 10:57:41;;;;;;;18.52;8.63;;;10.80;58.60;;;;;;5016275;28;20121;-75
2021/04/02 11:00:09;;;;;;;15.05;7.40;;;10.50;59.30;;;;;;5008016;28;20604;-72
2021/04/02 11:02:35;;;;;;;14.85;7.18;;;10.10;59.70;;;;;;5012971;28;20176;-71
2021/04/02 11:05:01;;;;;;;18.55;7.80;;;10.30;60.30;;;;;;5033317;28;20132;-71
2021/04/02 11:07:27;;;;;;;16.60;7.93;;;10.20;59.70;;;;;;5029398;28;20052;-71
2021/04/02 11:09:53;;;;;;;14.43;6.80;;;10.50;59.70;;;;;;5030075;28;20557;-72
2021/04/02 11:12:19;;;;;;;12.05;6.65;;;10.60;59.00;;;;;;5023893;28;20146;-71
2021/04/02 11:14:44;;;;;;;13.25;6.90;;;10.60;57.70;;;;;;5026785;28;20033;-71
2021/04/02 11:17:10;;;;;;;14.90;7.32;;;10.60;59.20;;;;;;5023782;28;20108;-71
2021/04/02 11:19:37;;;;;;;18.92;7.30;;;10.60;58.20;;;;;;5028681;28;20129;-71
2021/04/02 11:22:02;;;;;;;16.63;7.90;;;10.60;58.20;;;;;;5032788;28;20121;-71
2021/04/02 11:24:28;;;;;;;13.68;7.32;;;10.30;58.90;;;;;;5017371;28;20675;-75
2021/04/02 11:26:55;;;;;;;12.65;7.20;;;10.20;59.10;;;;;;5020545;28;20041;-71
2021/04/02 11:29:21;;;;;;;13.95;7.32;;;10.10;59.20;;;;;;5022548;28;20068;-71
2021/04/02 11:31:47;;;;;;;15.90;7.45;;;10.10;59.30;;;;;;5020540;28;20133;-72
2021/04/02 11:34:12;;;;;;;13.88;6.57;;;10.40;60.20;;;;;;5021435;28;20033;-71
2021/04/02 11:36:40;;;;;;;14.50;6.28;;;10.60;58.70;;;;;;5030869;28;20037;-71
2021/04/02 11:39:06;;;;;;;15.35;6.97;;;10.70;58.00;;;;;;5023929;28;20021;-71
2021/04/02 11:41:31;;;;;;;15.63;7.13;;;10.40;57.80;;;;;;5021417;28;20032;-72
2021/04/02 11:43:57;;;;;;;16.02;7.13;;;10.40;58.00;;;;;;5027781;28;20030;-71
2021/04/02 11:46:23;;;;;;;13.65;6.70;;;10.40;58.20;;;;;;5024851;28;20456;-72
2021/04/02 11:48:48;;;;;;;16.38;7.25;;;10.40;57.20;;;;;;5026578;28;20045;-75
2021/04/02 11:51:14;;;;;;;16.40;7.20;;;10.30;58.40;;;;;;5026514;28;20041;-71
2021/04/02 11:53:40;;;;;;;16.60;7.38;;;10.10;57.60;;;;;;5025308;28;20021;-71
2021/04/02 11:56:06;;;;;;;11.60;5.90;;;10.10;58.20;;;;;;5031254;28;20159;-70
2021/04/02 11:58:32;;;;;;;16.10;5.78;;;9.80;57.50;;;;;;5029119;28;20053;-71
2021/04/02 12:00:57;;;;;;;14.27;5.90;;;9.60;57.40;;;;;;5026784;28;20448;-72
2021/04/02 12:03:23;;;;;;;12.82;6.05;;;9.60;57.60;;;;;;5019819;28;20482;-70
2021/04/02 12:05:49;;;;;;;13.93;5.93;;;9.40;57.40;;;;;;5047211;28;20132;-72
2021/04/02 12:08:14;;;;;;;16.00;6.05;;;9.60;58.60;;;;;;5020890;28;20026;-72
2021/04/02 12:10:40;;;;;;;13.93;6.22;;;9.80;58.00;;;;;;5029514;28;20041;-72
2021/04/02 12:13:06;;;;;;;13.75;5.30;;;10.10;56.80;;;;;;5023150;28;20025;-73
2021/04/02 12:15:31;;;;;;;13.57;5.43;;;10.50;55.70;;;;;;5020868;28;20041;-73
2021/04/02 12:17:57;;;;;;;13.23;5.25;;;10.30;56.30;;;;;;5021847;28;20524;-74
2021/04/02 12:20:23;;;;;;;14.75;5.32;;;9.90;57.10;;;;;;5027211;28;20108;-73
2021/04/02 12:22:49;;;;;;;10.50;4.80;;;10.00;58.20;;;;;;5031473;28;20029;-72
2021/04/02 12:25:16;;;;;;;12.52;5.63;;;10.00;57.40;;;;;;5029104;28;20045;-71
2021/04/02 12:27:42;;;;;;;13.68;5.65;;;10.10;58.40;;;;;;5033397;28;20628;-71
2021/04/02 12:30:12;;;;;;;13.82;5.13;;;10.50;57.20;;;;;;5031133;28;20376;-73
2021/04/02 12:32:38;;;;;;;14.70;5.95;;;10.60;57.70;;;;;;5026820;28;20033;-73
2021/04/02 12:35:04;;;;;;;12.20;5.38;;;10.30;57.00;;;;;;5030222;28;20017;-72
2021/04/02 12:37:30;;;;;;;16.27;5.45;;;10.30;57.30;;;;;;5029210;28;20104;-71
2021/04/02 12:39:58;;;;;;;14.68;6.00;;;9.70;57.00;;;;;;5033804;28;20040;-72
2021/04/02 12:42:24;;;;;;;14.88;5.57;;;9.50;59.00;;;;;;5025931;28;20025;-72
2021/04/02 12:44:49;;;;;;;15.15;5.47;;;9.70;58.20;;;;;;5025447;28;20026;-71